Time;durP1;ratioP1;P1;durP2;ratioP2;P2;SDS_P1;SDS_P2;PMS_P1;PMS_P2;Temp;Humidity;BMP_temperature;BMP_pressure;BME280_temperature;BME280_humidity;BME280_pressure;Samples;Min_cycle;Max_cycle;Signal;HPM_P1;HPM_P2
2023/05/28 00:00:15;;;;;;;12.13;6.70;;;19.90;53.50;;;;;;5024413;28;20180;-65
2023/05/28 00:02:41;;;;;;;11.53;7.73;;;19.90;53.60;;;;;;5024387;28;20553;-65
2023/05/28 00:05:07;;;;;;;10.10;6.10;;;19.80;53.60;;;;;;5019015;28;20434;-65
2023/05/28 00:07:32;;;;;;;8.87;6.17;;;19.80;53.70;;;;;;5026169;28;20187;-64
2023/05/28 00:09:58;;;;;;;7.43;5.60;;;19.80;53.90;;;;;;5028784;28;20442;-64
2023/05/28 00:12:24;;;;;;;10.10;6.90;;;19.70;54.00;;;;;;5026835;28;20189;-64
2023/05/28 00:14:50;;;;;;;7.67;6.27;;;19.70;54.10;;;;;;5028039;28;20208;-64
2023/05/28 00:17:16;;;;;;;12.27;6.67;;;19.60;54.40;;;;;;5014145;28;20223;-64
2023/05/28 00:19:43;;;;;;;10.47;6.70;;;19.60;54.40;;;;;;5017448;28;20286;-64
2023/05/28 00:22:09;;;;;;;8.13;5.73;;;19.50;54.60;;;;;;5024208;28;20510;-64
2023/05/28 00:24:34;;;;;;;12.97;6.10;;;19.50;54.70;;;;;;5025830;28;20408;-64
2023/05/28 00:27:00;;;;;;;10.17;6.30;;;19.50;54.90;;;;;;5020723;28;20560;-65
2023/05/28 00:29:26;;;;;;;8.67;6.33;;;19.40;55.00;;;;;;5019782;28;20203;-64
2023/05/28 00:31:55;;;;;;;8.90;6.10;;;19.40;55.00;;;;;;5029455;28;20510;-64
2023/05/28 00:34:25;;;;;;;8.60;6.53;;;19.30;55.20;;;;;;5027149;28;20733;-65
2023/05/28 00:36:51;;;;;;;10.53;6.33;;;19.30;55.20;;;;;;5027251;28;20540;-65
2023/05/28 00:39:18;;;;;;;9.50;6.20;;;19.30;55.30;;;;;;5029398;28;20461;-64
2023/05/28 00:41:43;;;;;;;11.13;7.10;;;19.30;55.20;;;;;;5029299;28;20473;-64
2023/05/28 00:44:09;;;;;;;10.47;6.67;;;19.30;55.10;;;;;;5024552;28;20431;-65
2023/05/28 00:46:36;;;;;;;8.30;6.13;;;19.20;54.80;;;;;;5026501;28;20538;-65
2023/05/28 00:49:02;;;;;;;7.53;5.90;;;19.10;54.80;;;;;;5025975;28;20203;-65
2023/05/28 00:51:29;;;;;;;9.70;5.37;;;19.00;54.70;;;;;;5020271;28;20439;-65
2023/05/28 00:53:55;;;;;;;13.90;6.47;;;19.00;55.50;;;;;;5021662;28;20921;-64
2023/05/28 00:56:22;;;;;;;9.90;6.87;;;18.90;54.70;;;;;;5023486;28;20463;-64
2023/05/28 00:58:49;;;;;;;8.47;6.20;;;18.90;54.90;;;;;;5028096;28;20488;-64
2023/05/28 01:01:15;;;;;;;8.87;6.33;;;18.80;54.80;;;;;;5022210;28;20411;-64
2023/05/28 01:03:41;;;;;;;9.43;5.80;;;18.80;54.80;;;;;;5023924;28;20959;-64
2023/05/28 01:06:11;;;;;;;7.10;5.60;;;18.70;54.70;;;;;;5024988;28;20769;-64
2023/05/28 01:08:37;;;;;;;8.90;5.90;;;18.70;55.20;;;;;;5019594;28;20462;-64
2023/05/28 01:11:04;;;;;;;12.87;6.20;;;18.70;54.60;;;;;;5019699;28;20444;-64
2023/05/28 01:13:31;;;;;;;7.90;5.97;;;18.60;54.60;;;;;;5024474;28;20433;-65
2023/05/28 01:15:58;;;;;;;9.53;5.43;;;18.60;54.80;;;;;;5020984;28;20545;-64
2023/05/28 01:18:24;;;;;;;10.53;6.20;;;18.60;54.80;;;;;;5026206;28;20446;-64
2023/05/28 01:20:50;;;;;;;10.37;6.33;;;18.50;54.70;;;;;;5025006;28;20446;-64
2023/05/28 01:23:20;;;;;;;7.00;5.40;;;18.50;54.80;;;;;;5018865;28;20428;-64
2023/05/28 01:25:50;;;;;;;8.20;5.40;;;18.40;54.80;;;;;;5018659;28;20419;-64
2023/05/28 01:28:16;;;;;;;6.33;5.53;;;18.40;54.80;;;;;;5024928;28;21073;-65
2023/05/28 01:30:45;;;;;;;14.10;5.97;;;18.40;54.80;;;;;;5018445;28;20562;-64
2023/05/28 01:33:11;;;;;;;10.57;5.47;;;18.30;54.80;;;;;;5018262;28;20562;-64
2023/05/28 01:35:38;;;;;;;9.40;6.37;;;18.30;55.00;;;;;;5019757;28;20420;-64
2023/05/28 01:38:05;;;;;;;8.83;5.80;;;18.30;54.90;;;;;;5018439;28;20176;-64
2023/05/28 01:40:32;;;;;;;8.40;5.30;;;18.20;55.00;;;;;;5026903;28;20526;-64
2023/05/28 01:42:59;;;;;;;8.87;5.73;;;18.20;55.10;;;;;;5014593;28;21121;-65
2023/05/28 01:45:25;;;;;;;10.57;6.03;;;18.20;55.30;;;;;;5023494;28;20414;-64
2023/05/28 01:47:51;;;;;;;6.20;5.10;;;18.10;55.40;;;;;;5019453;28;20431;-65
2023/05/28 01:50:16;;;;;;;9.43;6.50;;;18.10;55.40;;;;;;5026053;28;20502;-64
2023/05/28 01:52:44;;;;;;;8.53;5.37;;;18.10;55.50;;;;;;5010164;28;20518;-64
2023/05/28 01:55:11;;;;;;;7.90;5.77;;;18.00;55.60;;;;;;5019438;28;20177;-64
2023/05/28 01:57:37;;;;;;;8.93;6.10;;;18.00;55.80;;;;;;5024910;28;20831;-64
2023/05/28 02:00:04;;;;;;;7.43;6.20;;;17.90;56.00;;;;;;5025657;28;20439;-64
2023/05/28 02:02:30;;;;;;;9.03;5.83;;;17.90;56.20;;;;;;5023698;28;20449;-64
2023/05/28 02:04:56;;;;;;;10.07;6.67;;;17.80;56.20;;;;;;5026921;28;20466;-64
2023/05/28 02:07:21;;;;;;;9.33;5.33;;;17.80;56.50;;;;;;5037052;28;20712;-64
2023/05/28 02:09:47;;;;;;;12.90;6.13;;;17.80;56.60;;;;;;5018574;28;20744;-64
2023/05/28 02:12:12;;;;;;;8.30;5.63;;;17.70;56.70;;;;;;5020793;28;20220;-64
2023/05/28 02:14:38;;;;;;;8.87;5.40;;;17.70;56.80;;;;;;5027453;28;20181;-64
2023/05/28 02:17:04;;;;;;;15.20;5.70;;;17.70;57.00;;;;;;5023096;28;20205;-64
2023/05/28 02:19:29;;;;;;;10.50;5.90;;;17.60;57.10;;;;;;5025147;28;20732;-64
2023/05/28 02:21:55;;;;;;;9.17;6.10;;;17.60;57.10;;;;;;5023746;28;20189;-64
2023/05/28 02:24:22;;;;;;;8.70;6.00;;;17.60;57.20;;;;;;5033593;28;20179;-64
2023/05/28 02:26:47;;;;;;;6.80;5.63;;;17.50;57.40;;;;;;5026667;28;20959;-64
2023/05/28 02:29:13;;;;;;;7.43;6.10;;;17.50;57.50;;;;;;5023726;28;20443;-64
2023/05/28 02:31:39;;;;;;;7.83;5.57;;;17.40;57.70;;;;;;5028276;28;20180;-64
2023/05/28 02:34:04;;;;;;;13.40;6.23;;;17.40;57.80;;;;;;5025038;28;20199;-64
2023/05/28 02:36:30;;;;;;;9.00;5.80;;;17.40;57.90;;;;;;5030025;28;20452;-64
2023/05/28 02:38:56;;;;;;;8.10;5.30;;;17.40;57.90;;;;;;5024950;28;20300;-64
2023/05/28 02:41:22;;;;;;;8.70;5.60;;;17.40;58.00;;;;;;5024522;28;20179;-64
2023/05/28 02:43:47;;;;;;;6.47;5.13;;;17.40;58.00;;;;;;5027257;28;20439;-64
2023/05/28 02:46:13;;;;;;;6.40;5.23;;;17.30;58.10;;;;;;5030712;28;20635;-65
2023/05/28 02:48:39;;;;;;;8.90;6.87;;;17.30;58.30;;;;;;5027182;28;20200;-65
2023/05/28 02:51:04;;;;;;;6.50;5.17;;;17.30;58.40;;;;;;5025500;28;20207;-65
2023/05/28 02:53:31;;;;;;;11.23;6.33;;;17.30;58.50;;;;;;5030190;28;20462;-65
2023/05/28 02:55:57;;;;;;;7.43;5.87;;;17.20;58.60;;;;;;5026995;28;20196;-65
2023/05/28 02:58:23;;;;;;;12.93;7.20;;;17.20;58.70;;;;;;5028807;28;20437;-65
2023/05/28 03:00:49;;;;;;;9.30;5.80;;;17.20;58.80;;;;;;5027491;28;20208;-65
2023/05/28 03:03:15;;;;;;;7.63;5.60;;;17.20;59.00;;;;;;5024241;28;21057;-64
2023/05/28 03:05:40;;;;;;;7.90;5.80;;;17.10;59.10;;;;;;5031269;28;20182;-65
2023/05/28 03:08:06;;;;;;;9.73;5.90;;;17.10;59.30;;;;;;5023601;28;20983;-65
2023/05/28 03:10:32;;;;;;;6.77;5.33;;;17.10;59.50;;;;;;5020043;28;20196;-65
2023/05/28 03:12:57;;;;;;;13.63;5.90;;;17.00;59.50;;;;;;5024357;28;20184;-65
2023/05/28 03:15:26;;;;;;;9.60;5.40;;;17.00;59.70;;;;;;5023473;28;20259;-65
2023/05/28 03:17:55;;;;;;;7.20;5.27;;;17.00;59.80;;;;;;5021223;28;20205;-65
2023/05/28 03:20:20;;;;;;;10.10;5.90;;;17.00;60.00;;;;;;5021311;28;20990;-65
2023/05/28 03:22:48;;;;;;;9.17;5.80;;;17.00;60.10;;;;;;5017858;28;20482;-65
2023/05/28 03:25:13;;;;;;;7.60;5.20;;;16.90;60.40;;;;;;5025600;28;20183;-65
2023/05/28 03:27:39;;;;;;;11.20;5.90;;;16.90;60.50;;;;;;5038121;28;20497;-65
2023/05/28 03:30:07;;;;;;;9.23;5.87;;;16.80;60.60;;;;;;5025197;28;20278;-65
2023/05/28 03:32:32;;;;;;;7.57;6.30;;;16.80;60.70;;;;;;5030426;28;20188;-65
2023/05/28 03:34:58;;;;;;;8.60;5.63;;;16.80;60.80;;;;;;5018791;28;20420;-65
2023/05/28 03:37:26;;;;;;;8.03;5.80;;;16.80;61.10;;;;;;5030482;28;20204;-65
2023/05/28 03:39:52;;;;;;;11.33;5.90;;;16.70;61.20;;;;;;5015540;28;20225;-65
2023/05/28 03:42:18;;;;;;;7.53;6.03;;;16.70;61.30;;;;;;5026220;28;20558;-65
2023/05/28 03:44:43;;;;;;;11.20;6.40;;;16.70;61.50;;;;;;5018425;28;21246;-65
2023/05/28 03:47:09;;;;;;;10.03;6.10;;;16.70;61.90;;;;;;5028168;28;20180;-65
2023/05/28 03:49:35;;;;;;;9.47;6.23;;;16.70;61.90;;;;;;5031963;28;20256;-65
2023/05/28 03:52:00;;;;;;;9.80;5.83;;;16.70;62.00;;;;;;5024206;28;20276;-65
2023/05/28 03:54:26;;;;;;;5.83;5.20;;;16.70;62.10;;;;;;5027377;28;20503;-65
2023/05/28 03:56:51;;;;;;;7.17;5.07;;;16.70;62.40;;;;;;5022136;28;20281;-65
2023/05/28 03:59:17;;;;;;;8.80;5.63;;;16.70;62.40;;;;;;5022936;28;20247;-65
2023/05/28 04:01:42;;;;;;;7.50;5.77;;;16.60;62.50;;;;;;5022789;28;20195;-65
2023/05/28 04:04:08;;;;;;;8.30;5.50;;;16.60;62.60;;;;;;5024474;28;20577;-65
2023/05/28 04:06:34;;;;;;;9.23;5.60;;;16.60;62.70;;;;;;5026246;28;20176;-65
2023/05/28 04:08:59;;;;;;;8.90;5.90;;;16.60;62.80;;;;;;5023777;28;20268;-65
2023/05/28 04:11:28;;;;;;;10.13;5.77;;;16.60;63.10;;;;;;5022781;28;20688;-65
2023/05/28 04:13:54;;;;;;;8.93;6.23;;;16.60;63.40;;;;;;5023661;28;20185;-65
2023/05/28 04:16:22;;;;;;;19.03;5.63;;;16.60;63.50;;;;;;5021578;28;20513;-65
2023/05/28 04:18:49;;;;;;;8.97;5.60;;;16.50;63.50;;;;;;5021521;28;20595;-65
2023/05/28 04:21:15;;;;;;;6.07;5.47;;;16.60;63.80;;;;;;5024854;28;20524;-65
2023/05/28 04:23:40;;;;;;;13.23;7.90;;;16.60;63.80;;;;;;5027610;28;20415;-65
2023/05/28 04:26:06;;;;;;;9.13;6.37;;;16.60;64.30;;;;;;5020005;28;20211;-65
2023/05/28 04:28:33;;;;;;;7.47;5.70;;;16.50;64.20;;;;;;5023999;28;20230;-65
2023/05/28 04:31:02;;;;;;;8.63;6.20;;;16.50;64.30;;;;;;5020835;28;20639;-65
2023/05/28 04:33:31;;;;;;;10.50;5.77;;;16.50;64.70;;;;;;5018929;28;20482;-65
2023/05/28 04:36:01;;;;;;;9.73;6.53;;;16.50;64.80;;;;;;5023488;28;20582;-65
2023/05/28 04:38:31;;;;;;;8.47;5.77;;;16.50;64.80;;;;;;5016507;28;20482;-65
2023/05/28 04:40:57;;;;;;;11.23;6.57;;;16.50;64.90;;;;;;5019063;28;20420;-65
2023/05/28 04:43:23;;;;;;;9.00;5.50;;;16.50;65.10;;;;;;5016931;28;20463;-65
2023/05/28 04:45:49;;;;;;;7.83;5.63;;;16.50;65.40;;;;;;5022147;28;20463;-65
2023/05/28 04:48:15;;;;;;;11.03;5.73;;;16.50;65.30;;;;;;5025674;28;20442;-65
2023/05/28 04:50:41;;;;;;;8.70;6.00;;;16.50;65.90;;;;;;5021457;28;20557;-65
2023/05/28 04:53:07;;;;;;;13.10;6.80;;;16.50;66.20;;;;;;5022643;28;20176;-65
2023/05/28 04:55:32;;;;;;;7.30;4.87;;;16.50;66.20;;;;;;5027409;28;21046;-65
2023/05/28 04:57:58;;;;;;;8.87;6.00;;;16.50;66.20;;;;;;5022400;28;20184;-65
2023/05/28 05:00:26;;;;;;;9.93;6.03;;;16.50;66.30;;;;;;5021994;28;20208;-65
2023/05/28 05:02:52;;;;;;;8.10;5.67;;;16.50;66.40;;;;;;5024230;28;20196;-65
2023/05/28 05:05:18;;;;;;;9.10;5.60;;;16.50;66.50;;;;;;5020062;28;20451;-65
2023/05/28 05:07:45;;;;;;;10.97;6.20;;;16.50;66.80;;;;;;5025682;28;20423;-65
2023/05/28 05:10:11;;;;;;;10.60;5.70;;;16.50;66.80;;;;;;5023211;28;20480;-66
2023/05/28 05:12:37;;;;;;;7.20;5.90;;;16.50;66.90;;;;;;5022337;28;20483;-65
2023/05/28 05:15:05;;;;;;;8.03;6.03;;;16.50;67.20;;;;;;5020470;28;20436;-65
2023/05/28 05:17:31;;;;;;;9.70;5.67;;;16.50;67.40;;;;;;5022538;28;20773;-65
2023/05/28 05:19:57;;;;;;;10.10;6.57;;;16.50;67.50;;;;;;5011917;28;20456;-65
2023/05/28 05:22:23;;;;;;;9.87;6.40;;;16.60;67.60;;;;;;5023984;28;20426;-65
2023/05/28 05:24:49;;;;;;;9.30;5.87;;;16.60;67.70;;;;;;5023692;28;20419;-65
2023/05/28 05:27:15;;;;;;;5.87;5.27;;;16.60;67.90;;;;;;5023526;28;20190;-65
2023/05/28 05:29:41;;;;;;;9.57;5.80;;;16.60;68.50;;;;;;5021441;28;20208;-65
2023/05/28 05:32:07;;;;;;;8.20;6.07;;;16.70;68.40;;;;;;5028593;28;20423;-65
2023/05/28 05:34:33;;;;;;;10.70;7.37;;;16.70;68.30;;;;;;5029036;28;20198;-65
2023/05/28 05:36:58;;;;;;;8.40;5.10;;;16.70;68.30;;;;;;5026366;28;20466;-65
2023/05/28 05:39:24;;;;;;;6.13;5.17;;;16.70;68.30;;;;;;5049024;28;20201;-65
2023/05/28 05:41:50;;;;;;;9.33;5.57;;;16.80;68.20;;;;;;5023720;28;20292;-66
2023/05/28 05:44:16;;;;;;;6.33;5.47;;;16.80;68.40;;;;;;5029735;28;20661;-65
2023/05/28 05:46:41;;;;;;;10.23;5.77;;;16.80;68.30;;;;;;5026289;28;20184;-65
2023/05/28 05:49:07;;;;;;;7.20;5.50;;;16.80;68.30;;;;;;5022868;28;20720;-65
2023/05/28 05:51:33;;;;;;;9.43;5.80;;;16.80;68.30;;;;;;5022722;28;20509;-65
2023/05/28 05:53:59;;;;;;;11.00;6.13;;;16.90;68.40;;;;;;5026709;28;20901;-65
2023/05/28 05:56:25;;;;;;;7.57;5.43;;;16.90;68.50;;;;;;5029815;28;20212;-65
2023/05/28 05:58:51;;;;;;;10.30;5.70;;;17.00;68.50;;;;;;5024033;28;20569;-65
2023/05/28 06:01:17;;;;;;;11.43;5.80;;;17.00;68.30;;;;;;5028903;28;20414;-65
2023/05/28 06:03:43;;;;;;;10.43;5.70;;;17.00;68.00;;;;;;5024684;28;20229;-65
2023/05/28 06:06:09;;;;;;;7.30;5.40;;;17.10;68.20;;;;;;5027306;28;20426;-65
2023/05/28 06:08:35;;;;;;;7.17;5.70;;;17.10;68.20;;;;;;5024580;28;20964;-65
2023/05/28 06:11:01;;;;;;;7.80;5.10;;;17.20;68.30;;;;;;5025682;28;20215;-65
2023/05/28 06:13:26;;;;;;;6.73;5.60;;;17.20;68.00;;;;;;5029149;28;20411;-65
2023/05/28 06:15:52;;;;;;;12.00;5.23;;;17.30;68.10;;;;;;5032817;28;20184;-65
2023/05/28 06:18:17;;;;;;;10.10;5.60;;;17.30;67.80;;;;;;5024699;28;20203;-65
2023/05/28 06:20:43;;;;;;;9.27;6.10;;;17.40;67.90;;;;;;5023244;28;20310;-65
2023/05/28 06:23:09;;;;;;;9.70;5.27;;;17.40;67.90;;;;;;5022560;28;20212;-66
2023/05/28 06:25:35;;;;;;;8.40;5.80;;;17.50;68.20;;;;;;5024066;28;20187;-65
2023/05/28 06:28:01;;;;;;;9.27;5.90;;;17.50;68.00;;;;;;5032033;28;20236;-65
2023/05/28 06:30:27;;;;;;;11.20;5.80;;;17.50;68.00;;;;;;5029647;28;20196;-65
2023/05/28 06:32:52;;;;;;;12.20;6.47;;;17.60;67.90;;;;;;5030585;28;20426;-65
2023/05/28 06:35:18;;;;;;;9.57;6.93;;;17.70;67.90;;;;;;5028111;28;20203;-65
2023/05/28 06:37:44;;;;;;;9.77;6.50;;;17.70;67.70;;;;;;5027056;28;20290;-68
2023/05/28 06:40:10;;;;;;;10.33;6.90;;;17.80;67.20;;;;;;5026690;28;20357;-65
2023/05/28 06:42:37;;;;;;;10.20;7.00;;;17.80;66.90;;;;;;5020365;28;20177;-65
2023/05/28 06:45:03;;;;;;;9.13;5.70;;;17.80;66.60;;;;;;5028192;28;20438;-65
2023/05/28 06:47:29;;;;;;;13.53;7.20;;;17.90;66.50;;;;;;5030232;28;20420;-65
2023/05/28 06:49:55;;;;;;;13.60;8.90;;;17.90;66.30;;;;;;5022085;28;20470;-65
2023/05/28 06:52:21;;;;;;;10.60;6.07;;;18.00;66.40;;;;;;5026292;28;20234;-65
2023/05/28 06:54:47;;;;;;;8.17;5.60;;;18.00;66.50;;;;;;5027034;28;20505;-65
2023/05/28 06:57:12;;;;;;;12.10;6.63;;;18.10;66.30;;;;;;5023246;28;21029;-66
2023/05/28 06:59:38;;;;;;;11.33;7.67;;;18.10;65.80;;;;;;5026792;28;20686;-65
2023/05/28 07:02:04;;;;;;;9.43;6.53;;;18.10;65.00;;;;;;5027696;28;20272;-65
2023/05/28 07:04:30;;;;;;;8.83;5.97;;;18.20;65.10;;;;;;5024930;28;20188;-65
2023/05/28 07:06:55;;;;;;;15.27;7.80;;;18.20;64.90;;;;;;5023952;28;20656;-66
2023/05/28 07:09:21;;;;;;;9.93;6.80;;;18.30;64.70;;;;;;5022596;28;20550;-65
2023/05/28 07:11:46;;;;;;;7.93;6.40;;;18.30;64.60;;;;;;5030822;28;20204;-65
2023/05/28 07:14:12;;;;;;;16.10;10.00;;;18.30;64.40;;;;;;5025206;28;20259;-65
2023/05/28 07:16:37;;;;;;;17.20;12.37;;;18.40;64.40;;;;;;5018470;28;20220;-66
2023/05/28 07:19:03;;;;;;;18.83;14.73;;;18.40;64.30;;;;;;5025180;28;20226;-65
2023/05/28 07:21:29;;;;;;;9.67;7.20;;;18.50;64.00;;;;;;5027303;28;20205;-65
2023/05/28 07:23:54;;;;;;;9.20;5.60;;;18.60;63.90;;;;;;5022171;28;20939;-65
2023/05/28 07:26:20;;;;;;;10.50;7.30;;;18.60;63.30;;;;;;5020080;28;20583;-66
2023/05/28 07:28:45;;;;;;;7.60;6.37;;;18.70;63.30;;;;;;5028627;28;20628;-66
2023/05/28 07:31:11;;;;;;;12.00;7.57;;;18.70;63.20;;;;;;5020217;28;20193;-65
2023/05/28 07:33:36;;;;;;;6.77;5.77;;;18.70;63.10;;;;;;5023905;28;20606;-66
2023/05/28 07:36:02;;;;;;;7.20;5.97;;;18.80;63.40;;;;;;5024244;28;20213;-66
2023/05/28 07:38:28;;;;;;;9.60;5.43;;;18.90;62.90;;;;;;5021077;28;20212;-65
2023/05/28 07:40:53;;;;;;;7.93;5.90;;;19.00;63.40;;;;;;5027793;28;21271;-66
2023/05/28 07:43:19;;;;;;;7.03;5.37;;;19.00;63.00;;;;;;5023145;28;20258;-66
2023/05/28 07:45:44;;;;;;;10.40;5.80;;;19.10;63.10;;;;;;5025698;28;20176;-65
2023/05/28 07:48:10;;;;;;;14.30;9.57;;;19.10;62.60;;;;;;5030223;28;20200;-65
2023/05/28 07:50:37;;;;;;;10.43;7.17;;;19.20;62.50;;;;;;5025602;28;20323;-65
2023/05/28 07:53:03;;;;;;;13.50;7.03;;;19.30;62.50;;;;;;5017822;28;20183;-65
2023/05/28 07:55:28;;;;;;;10.17;7.23;;;19.30;62.10;;;;;;5021004;28;20918;-65
2023/05/28 07:57:55;;;;;;;8.50;6.30;;;19.30;62.10;;;;;;5025367;28;20647;-66
2023/05/28 08:00:20;;;;;;;8.73;5.67;;;19.40;62.80;;;;;;5021672;28;20262;-65
2023/05/28 08:02:46;;;;;;;9.00;5.33;;;19.50;62.70;;;;;;5022239;28;20534;-65
2023/05/28 08:05:13;;;;;;;11.13;6.27;;;19.50;62.70;;;;;;5025100;28;20176;-65
2023/05/28 08:07:39;;;;;;;8.47;5.87;;;19.50;63.00;;;;;;5018790;28;20445;-65
2023/05/28 08:10:05;;;;;;;6.97;5.30;;;19.70;62.80;;;;;;5018411;28;20475;-65
2023/05/28 08:12:31;;;;;;;9.90;7.57;;;19.70;62.80;;;;;;5025755;28;20454;-65
2023/05/28 08:14:56;;;;;;;13.53;7.73;;;19.70;62.70;;;;;;5023732;28;20192;-65
2023/05/28 08:17:22;;;;;;;13.17;11.70;;;19.80;63.50;;;;;;5019747;28;20235;-65
2023/05/28 08:19:48;;;;;;;11.70;7.33;;;19.80;62.50;;;;;;5019728;28;20220;-65
2023/05/28 08:22:14;;;;;;;9.13;6.10;;;19.80;62.10;;;;;;5022855;28;20189;-65
2023/05/28 08:24:39;;;;;;;11.13;6.90;;;19.90;62.20;;;;;;5024010;28;20490;-65
2023/05/28 08:27:06;;;;;;;15.47;9.90;;;20.00;62.10;;;;;;5020574;28;20196;-65
2023/05/28 08:29:32;;;;;;;8.50;6.23;;;20.00;62.20;;;;;;5023153;28;20775;-65
2023/05/28 08:31:58;;;;;;;12.53;8.30;;;20.10;62.20;;;;;;5025616;28;20477;-65
2023/05/28 08:34:25;;;;;;;10.20;7.27;;;20.10;61.90;;;;;;5018158;28;20418;-65
2023/05/28 08:36:51;;;;;;;7.30;5.77;;;20.20;62.20;;;;;;5025441;28;21414;-65
2023/05/28 08:39:17;;;;;;;11.57;6.73;;;20.30;61.90;;;;;;5017261;28;20554;-65
2023/05/28 08:41:43;;;;;;;11.47;6.50;;;20.40;61.80;;;;;;5024970;28;20188;-65
2023/05/28 08:44:09;;;;;;;8.17;6.20;;;20.40;61.20;;;;;;5020260;28;20439;-65
2023/05/28 08:46:36;;;;;;;11.80;6.80;;;20.50;61.20;;;;;;5027008;28;20429;-65
2023/05/28 08:49:02;;;;;;;10.53;7.20;;;20.60;61.10;;;;;;5026859;28;20209;-65
2023/05/28 08:51:36;;;;;;;8.70;6.77;;;20.60;60.80;;;;;;5026282;28;20857;-65
2023/05/28 08:54:02;;;;;;;9.90;6.40;;;20.70;60.80;;;;;;5018781;28;20498;-65
2023/05/28 08:56:28;;;;;;;15.33;6.57;;;20.70;61.20;;;;;;5024154;28;20471;-65
2023/05/28 08:58:54;;;;;;;11.53;6.43;;;20.80;61.00;;;;;;5020705;28;20450;-65
2023/05/28 09:01:20;;;;;;;14.97;6.57;;;20.90;60.10;;;;;;5019517;28;20418;-65
2023/05/28 09:03:46;;;;;;;11.30;7.50;;;21.00;60.30;;;;;;5026268;28;20925;-65
2023/05/28 09:06:12;;;;;;;10.10;7.07;;;21.00;59.70;;;;;;5028537;28;20184;-65
2023/05/28 09:08:38;;;;;;;12.63;7.03;;;21.10;59.70;;;;;;5023010;28;20211;-65
2023/05/28 09:11:11;;;;;;;10.23;7.50;;;21.10;59.90;;;;;;5024530;28;20423;-65
2023/05/28 09:13:44;;;;;;;12.60;7.60;;;21.30;60.10;;;;;;5018443;28;20188;-65
2023/05/28 09:16:10;;;;;;;10.17;7.23;;;21.30;59.90;;;;;;5025796;28;20521;-65
2023/05/28 09:18:37;;;;;;;9.83;5.83;;;21.40;59.60;;;;;;5024889;28;20984;-66
2023/05/28 09:21:11;;;;;;;10.80;6.17;;;21.60;59.00;;;;;;5024693;28;20470;-65
2023/05/28 09:23:38;;;;;;;10.83;6.27;;;21.60;58.70;;;;;;5019201;28;20780;-65
2023/05/28 09:26:09;;;;;;;18.13;13.37;;;21.70;58.80;;;;;;5048467;28;20776;-65
2023/05/28 09:28:34;;;;;;;12.53;7.10;;;21.80;58.90;;;;;;5025493;28;20450;-65
2023/05/28 09:31:04;;;;;;;8.90;6.30;;;21.90;58.80;;;;;;5025246;28;20473;-66
2023/05/28 09:33:30;;;;;;;11.80;9.17;;;21.90;58.60;;;;;;5021135;28;20199;-66
2023/05/28 09:36:00;;;;;;;11.20;7.13;;;22.00;58.80;;;;;;5023461;28;20442;-66
2023/05/28 09:38:26;;;;;;;11.80;7.00;;;22.10;58.70;;;;;;5019042;28;20212;-66
2023/05/28 09:40:57;;;;;;;10.23;6.40;;;22.20;58.30;;;;;;5023563;28;20403;-66
2023/05/28 09:43:29;;;;;;;8.50;5.63;;;22.30;58.30;;;;;;5025988;28;20422;-66
2023/05/28 09:46:08;;;;;;;12.07;5.80;;;22.40;58.90;;;;;;5021928;28;20411;-66
2023/05/28 09:48:34;;;;;;;8.13;5.87;;;22.50;58.00;;;;;;5021415;28;20439;-66
2023/05/28 09:51:03;;;;;;;8.10;6.67;;;22.50;58.00;;;;;;5018345;28;20831;-66
2023/05/28 09:53:33;;;;;;;9.40;5.70;;;22.60;58.00;;;;;;5022804;28;20412;-66
2023/05/28 09:56:00;;;;;;;10.67;6.00;;;22.70;57.10;;;;;;5023536;28;20406;-66
2023/05/28 09:58:34;;;;;;;8.57;5.77;;;22.80;56.80;;;;;;5024746;28;20463;-66
2023/05/28 10:01:05;;;;;;;7.70;5.97;;;22.90;56.30;;;;;;5024491;28;20481;-66
2023/05/28 10:03:43;;;;;;;11.10;8.73;;;22.90;56.40;;;;;;5015021;28;20421;-66
2023/05/28 10:06:16;;;;;;;13.50;10.07;;;23.00;56.70;;;;;;5021555;28;20431;-66
2023/05/28 10:08:46;;;;;;;8.10;6.20;;;23.10;56.70;;;;;;5025366;28;20461;-65
2023/05/28 10:11:15;;;;;;;9.63;6.10;;;23.20;56.20;;;;;;5019382;28;20486;-67
2023/05/28 10:13:42;;;;;;;8.60;5.50;;;23.30;55.50;;;;;;5013585;28;20523;-66
2023/05/28 10:16:08;;;;;;;10.23;6.33;;;23.30;55.10;;;;;;5021981;28;20835;-66
2023/05/28 10:18:35;;;;;;;10.33;5.93;;;23.40;54.80;;;;;;5023667;28;20438;-66
2023/05/28 10:21:01;;;;;;;7.73;6.50;;;23.50;54.90;;;;;;5024104;28;20591;-66
2023/05/28 10:23:28;;;;;;;9.50;6.77;;;23.60;54.90;;;;;;5020928;28;20435;-66
2023/05/28 10:25:54;;;;;;;10.73;5.27;;;23.70;54.70;;;;;;5022421;28;20511;-66
2023/05/28 10:28:21;;;;;;;8.40;6.37;;;23.80;53.80;;;;;;5034836;28;20477;-66
2023/05/28 10:31:04;;;;;;;9.07;6.80;;;23.80;54.00;;;;;;5028373;28;20441;-66
2023/05/28 10:33:30;;;;;;;9.03;5.43;;;23.90;54.10;;;;;;5030218;28;20409;-66
2023/05/28 10:35:58;;;;;;;13.57;8.70;;;24.00;53.40;;;;;;5024538;28;20961;-66
2023/05/28 10:38:25;;;;;;;15.73;7.50;;;24.00;53.70;;;;;;5022031;28;21084;-66
2023/05/28 10:40:51;;;;;;;9.20;5.77;;;24.10;53.70;;;;;;5029946;28;20537;-66
2023/05/28 10:43:38;;;;;;;11.93;7.80;;;24.20;52.90;;;;;;5026265;28;20403;-66
2023/05/28 10:46:18;;;;;;;8.20;5.73;;;24.30;52.80;;;;;;5027549;28;20419;-66
2023/05/28 10:49:12;;;;;;;7.27;6.20;;;24.40;52.20;;;;;;5025250;28;20940;-66
2023/05/28 10:51:56;;;;;;;10.10;6.60;;;24.50;52.30;;;;;;5022063;28;21149;-66
2023/05/28 10:54:23;;;;;;;8.43;5.60;;;24.60;52.40;;;;;;5022909;28;21256;-66
2023/05/28 10:57:11;;;;;;;10.20;6.87;;;24.70;51.40;;;;;;5027545;28;20542;-66
2023/05/28 10:59:41;;;;;;;11.90;6.17;;;24.80;51.10;;;;;;5020037;28;20474;-66
2023/05/28 11:02:08;;;;;;;9.47;5.77;;;24.90;50.40;;;;;;5026134;28;20443;-67
2023/05/28 11:04:35;;;;;;;7.30;5.30;;;25.00;50.20;;;;;;5021555;28;20418;-66
2023/05/28 11:07:01;;;;;;;10.20;5.53;;;25.10;50.20;;;;;;5025016;28;21134;-66
2023/05/28 11:09:27;;;;;;;12.10;6.73;;;25.20;50.30;;;;;;5020747;28;20482;-66
2023/05/28 11:11:57;;;;;;;16.30;8.60;;;25.30;50.00;;;;;;5020967;28;20795;-66
2023/05/28 11:14:22;;;;;;;9.70;6.70;;;25.50;49.60;;;;;;5026026;28;20184;-66
2023/05/28 11:16:48;;;;;;;9.30;5.37;;;25.60;49.50;;;;;;5024265;28;20516;-66
2023/05/28 11:19:13;;;;;;;12.40;6.43;;;25.70;49.30;;;;;;5024037;28;20205;-66
2023/05/28 11:21:57;;;;;;;8.50;5.83;;;25.80;48.90;;;;;;5019232;28;20173;-66
2023/05/28 11:24:23;;;;;;;13.63;5.93;;;25.90;49.00;;;;;;5015398;28;20176;-66
2023/05/28 11:26:52;;;;;;;9.10;6.27;;;26.00;48.80;;;;;;5010382;28;20436;-66
2023/05/28 11:29:17;;;;;;;8.27;6.70;;;26.10;48.90;;;;;;5019038;28;20677;-66
2023/05/28 11:31:43;;;;;;;9.73;5.50;;;26.30;48.40;;;;;;5027139;28;20419;-65
2023/05/28 11:34:09;;;;;;;9.20;6.20;;;26.40;48.50;;;;;;5022357;28;20195;-65
2023/05/28 11:36:42;;;;;;;8.60;6.07;;;26.60;48.10;;;;;;5028555;28;20197;-65
2023/05/28 11:39:08;;;;;;;8.20;6.60;;;26.80;47.70;;;;;;5020791;28;20435;-65
2023/05/28 11:41:34;;;;;;;9.47;6.70;;;27.00;47.50;;;;;;5024123;28;21112;-65
2023/05/28 11:44:00;;;;;;;8.37;6.77;;;27.30;47.30;;;;;;5025228;28;20180;-66
2023/05/28 11:46:25;;;;;;;13.27;10.07;;;27.50;46.70;;;;;;5025135;28;20188;-66
2023/05/28 11:48:51;;;;;;;11.20;8.43;;;27.80;46.30;;;;;;5026493;28;20221;-65
2023/05/28 11:51:20;;;;;;;9.90;7.03;;;28.10;45.40;;;;;;5023215;28;20184;-65
2023/05/28 11:53:46;;;;;;;8.90;8.00;;;28.50;45.10;;;;;;5017230;28;20193;-65
2023/05/28 11:56:12;;;;;;;10.53;7.03;;;28.90;44.80;;;;;;5018004;28;20483;-65
2023/05/28 11:58:44;;;;;;;12.17;7.73;;;29.40;44.30;;;;;;5027925;28;20461;-64
2023/05/28 12:01:14;;;;;;;7.93;6.53;;;30.20;43.90;;;;;;5013817;28;20900;-64
2023/05/28 12:03:40;;;;;;;10.47;6.30;;;31.50;42.10;;;;;;5022417;28;21046;-65
2023/05/28 12:06:06;;;;;;;7.53;5.70;;;33.60;41.00;;;;;;5017512;28;20394;-65
2023/05/28 12:08:31;;;;;;;9.30;7.10;;;35.50;38.80;;;;;;5015641;28;20280;-65
2023/05/28 12:11:02;;;;;;;6.67;5.60;;;37.20;36.20;;;;;;5022507;28;20184;-65
2023/05/28 12:13:34;;;;;;;8.13;6.40;;;38.70;34.10;;;;;;5021489;28;20184;-65
2023/05/28 12:16:11;;;;;;;6.80;5.50;;;39.60;31.70;;;;;;5024429;28;20399;-65
2023/05/28 12:18:41;;;;;;;8.27;5.70;;;40.40;29.70;;;;;;5021317;28;20518;-66
2023/05/28 12:21:20;;;;;;;7.87;5.90;;;41.10;29.00;;;;;;5023166;28;20415;-66
2023/05/28 12:23:46;;;;;;;7.03;5.40;;;41.70;28.20;;;;;;5016031;28;20486;-65
2023/05/28 12:26:13;;;;;;;7.30;4.40;;;42.20;27.50;;;;;;5015422;28;20920;-66
2023/05/28 12:28:40;;;;;;;6.97;6.27;;;42.50;27.40;;;;;;5019050;28;20198;-66
2023/05/28 12:31:07;;;;;;;6.73;5.33;;;42.90;27.50;;;;;;5028257;28;20414;-65
2023/05/28 12:33:33;;;;;;;7.00;6.30;;;43.00;26.80;;;;;;5017093;28;20473;-66
2023/05/28 12:35:59;;;;;;;7.63;5.90;;;42.90;27.10;;;;;;5019836;28;21375;-65
2023/05/28 12:38:26;;;;;;;6.63;5.00;;;43.00;27.30;;;;;;5018522;28;20689;-65
2023/05/28 12:40:52;;;;;;;8.60;5.40;;;43.30;27.00;;;;;;5016126;28;21328;-64